< Typhoon 199005 1990 Season Typhoon 199007 >
Typhoon 199006 (PERCY)
General InformationTrack Information on Google MapsDetailed Wind InformationList of All Images || NewsDisaster Info.ResourceGoogle EarthGE AnimationAtom FeedGeoJSON
Detalied Best Track (Time Zone = UTC)
Year Month Day Hour Lat. Long. Pressure (hPa) Wind (kt) Class Image Chart
1990 6 20 06 11.5 147.5 1006 0 2 Image Chart
1990 6 20 12 11.0 147.0 1006 0 2 Image Chart
1990 6 20 18 11.0 146.5 1004 0 2 Image Chart
1990 6 21 00 11.0 146.0 1004 0 2 Image Chart
1990 6 21 06 10.5 145.5 1000 35 3 Image Chart
1990 6 21 12 10.0 144.8 998 35 3 Image Chart
1990 6 21 18 9.3 144.3 994 40 3 Image Chart
1990 6 22 00 8.4 143.8 990 45 3 Image Chart
1990 6 22 06 7.3 143.3 985 50 4 Image Chart
1990 6 22 12 7.3 143.2 980 55 4 Image Chart
1990 6 22 18 7.2 142.7 980 55 4 Image Chart
1990 6 23 00 7.3 142.0 980 55 4 Image Chart
1990 6 23 06 7.8 140.7 980 55 4 Image Chart
1990 6 23 12 8.2 139.5 975 60 4 Image Chart
1990 6 23 18 8.4 138.1 970 65 5 Image Chart
1990 6 24 00 9.0 136.6 970 65 5 Image Chart
1990 6 24 06 9.5 135.3 965 70 5 Image Chart
1990 6 24 12 10.4 133.6 960 75 5 Image Chart
1990 6 24 18 11.3 132.3 955 75 5 Image Chart
1990 6 25 00 11.8 131.2 950 80 5 Image Chart
1990 6 25 06 12.3 130.0 950 80 5 Image Chart
1990 6 25 12 13.0 129.1 950 80 5 Image Chart
1990 6 25 18 14.1 128.1 950 80 5 Image Chart
1990 6 26 00 14.7 126.9 950 80 5 Image Chart
1990 6 26 06 15.3 125.7 950 80 5 Image Chart
1990 6 26 12 15.8 124.5 950 80 5 Image Chart
1990 6 26 18 16.4 123.8 950 80 5 Image Chart
1990 6 27 00 17.2 122.7 955 75 5 Image Chart
1990 6 27 06 17.8 121.5 965 75 5 Image Chart
1990 6 27 12 19.2 120.8 965 70 5 Image Chart
1990 6 27 18 19.8 119.7 965 70 5 Image Chart
1990 6 28 00 20.1 119.0 960 75 5 Image Chart
1990 6 28 06 21.0 118.6 960 75 5 Image Chart
1990 6 28 12 21.7 118.2 960 75 5 Image Chart
1990 6 28 18 22.4 117.8 965 70 5 Image Chart
1990 6 29 00 23.0 117.6 965 70 5 Image Chart
1990 6 29 06 23.7 117.2 975 60 4 Image Chart
1990 6 29 12 24.2 117.4 985 50 4 Image Chart
1990 6 29 18 25.0 117.6 990 40 3 Image Chart
1990 6 30 00 26.0 118.0 998 0 2 Image Chart
Japan Meteorological Agency Best Track Data | Correction Date : 1992-10-21
< Typhoon 199005 1990 Season Typhoon 199007 >

Help